sensor_id;sensor_type;location;lat;lon;timestamp;pressure;altitude;pressure_sealevel;temperature;humidity
43480;BME280;29067;35.492;-97.520;2023-02-17T00:01:48;98090.37;;;-5.09;42.76
43480;BME280;29067;35.492;-97.520;2023-02-17T00:04:17;98097.17;;;-4.93;42.95
43480;BME280;29067;35.492;-97.520;2023-02-17T00:06:44;98094.84;;;-4.25;41.63
43480;BME280;29067;35.492;-97.520;2023-02-17T00:09:13;98107.08;;;-4.75;41.88
43480;BME280;29067;35.492;-97.520;2023-02-17T00:11:41;98108.37;;;-4.04;41.52
43480;BME280;29067;35.492;-97.520;2023-02-17T00:14:11;98112.96;;;-4.05;42.33
43480;BME280;29067;35.492;-97.520;2023-02-17T00:16:41;98112.29;;;-2.51;40.71
43480;BME280;29067;35.492;-97.520;2023-02-17T00:19:11;98133.76;;;-4.75;41.97
43480;BME280;29067;35.492;-97.520;2023-02-17T00:21:40;98132.23;;;-4.28;42.28
43480;BME280;29067;35.492;-97.520;2023-02-17T00:24:08;98140.29;;;-5.22;42.56
43480;BME280;29067;35.492;-97.520;2023-02-17T00:26:36;98139.40;;;-6.21;44.04
43480;BME280;29067;35.492;-97.520;2023-02-17T00:29:04;98147.68;;;-5.32;44.24
43480;BME280;29067;35.492;-97.520;2023-02-17T00:31:33;98146.47;;;-5.09;43.96
43480;BME280;29067;35.492;-97.520;2023-02-17T00:34:01;98147.50;;;-4.28;43.23
43480;BME280;29067;35.492;-97.520;2023-02-17T00:36:29;98155.58;;;-5.00;43.06
43480;BME280;29067;35.492;-97.520;2023-02-17T00:38:57;98150.62;;;-5.61;44.09
43480;BME280;29067;35.492;-97.520;2023-02-17T00:41:27;98154.67;;;-4.54;43.47
43480;BME280;29067;35.492;-97.520;2023-02-17T00:43:56;98152.65;;;-5.08;44.93
43480;BME280;29067;35.492;-97.520;2023-02-17T00:46:25;98162.14;;;-5.50;44.13
43480;BME280;29067;35.492;-97.520;2023-02-17T00:48:54;98171.78;;;-5.16;44.78
43480;BME280;29067;35.492;-97.520;2023-02-17T00:51:22;98173.44;;;-5.26;44.89
43480;BME280;29067;35.492;-97.520;2023-02-17T00:53:51;98183.61;;;-5.91;45.38
43480;BME280;29067;35.492;-97.520;2023-02-17T00:56:19;98184.95;;;-5.80;45.19
43480;BME280;29067;35.492;-97.520;2023-02-17T00:58:47;98194.81;;;-4.62;44.68
43480;BME280;29067;35.492;-97.520;2023-02-17T01:01:16;98202.28;;;-4.72;43.84
43480;BME280;29067;35.492;-97.520;2023-02-17T01:03:44;98210.06;;;-4.38;43.57
43480;BME280;29067;35.492;-97.520;2023-02-17T01:06:26;98214.61;;;-4.16;43.41
43480;BME280;29067;35.492;-97.520;2023-02-17T01:09:08;98217.05;;;-4.44;43.68
43480;BME280;29067;35.492;-97.520;2023-02-17T01:11:45;98221.73;;;-5.01;43.76
43480;BME280;29067;35.492;-97.520;2023-02-17T01:14:13;98233.12;;;-4.84;43.44
43480;BME280;29067;35.492;-97.520;2023-02-17T01:16:44;98241.63;;;-4.48;43.84
43480;BME280;29067;35.492;-97.520;2023-02-17T01:19:15;98249.46;;;-4.36;43.53
43480;BME280;29067;35.492;-97.520;2023-02-17T01:21:43;98257.65;;;-5.64;44.40
43480;BME280;29067;35.492;-97.520;2023-02-17T01:24:12;98265.86;;;-4.56;43.44
43480;BME280;29067;35.492;-97.520;2023-02-17T01:26:41;98264.58;;;-5.51;44.66
43480;BME280;29067;35.492;-97.520;2023-02-17T01:29:09;98270.19;;;-5.80;45.16
43480;BME280;29067;35.492;-97.520;2023-02-17T01:31:43;98268.86;;;-4.65;44.34
43480;BME280;29067;35.492;-97.520;2023-02-17T01:34:21;98275.48;;;-6.26;45.80
43480;BME280;29067;35.492;-97.520;2023-02-17T01:36:49;98271.67;;;-5.06;45.34
43480;BME280;29067;35.492;-97.520;2023-02-17T01:39:17;98283.05;;;-5.13;45.64
43480;BME280;29067;35.492;-97.520;2023-02-17T01:41:49;98292.57;;;-6.02;46.13
43480;BME280;29067;35.492;-97.520;2023-02-17T01:44:31;98314.08;;;-5.24;45.65
43480;BME280;29067;35.492;-97.520;2023-02-17T01:47:10;98319.36;;;-6.20;47.61
43480;BME280;29067;35.492;-97.520;2023-02-17T01:49:39;98334.01;;;-4.82;46.30
43480;BME280;29067;35.492;-97.520;2023-02-17T01:52:11;98326.71;;;-6.10;46.81
43480;BME280;29067;35.492;-97.520;2023-02-17T01:54:42;98347.19;;;-4.80;45.91
43480;BME280;29067;35.492;-97.520;2023-02-17T01:57:15;98340.26;;;-6.04;46.53
43480;BME280;29067;35.492;-97.520;2023-02-17T01:59:45;98339.49;;;-4.60;45.30
43480;BME280;29067;35.492;-97.520;2023-02-17T02:02:14;98350.34;;;-6.31;47.13
43480;BME280;29067;35.492;-97.520;2023-02-17T02:04:46;98347.67;;;-6.53;47.04
43480;BME280;29067;35.492;-97.520;2023-02-17T02:07:17;98349.62;;;-5.62;47.31
43480;BME280;29067;35.492;-97.520;2023-02-17T02:09:51;98358.83;;;-6.04;47.11
43480;BME280;29067;35.492;-97.520;2023-02-17T02:12:23;98362.75;;;-5.77;47.17
43480;BME280;29067;35.492;-97.520;2023-02-17T02:14:54;98369.48;;;-5.20;46.19
43480;BME280;29067;35.492;-97.520;2023-02-17T02:17:32;98366.99;;;-5.66;46.48
43480;BME280;29067;35.492;-97.520;2023-02-17T02:20:19;98364.72;;;-4.89;45.14
43480;BME280;29067;35.492;-97.520;2023-02-17T02:25:12;98382.91;;;-5.17;45.94
43480;BME280;29067;35.492;-97.520;2023-02-17T02:27:54;98381.65;;;-5.59;45.94
43480;BME280;29067;35.492;-97.520;2023-02-17T02:30:46;98377.91;;;-5.03;44.96
43480;BME280;29067;35.492;-97.520;2023-02-17T02:33:25;98394.89;;;-4.99;45.73
43480;BME280;29067;35.492;-97.520;2023-02-17T02:36:09;98395.12;;;-6.53;48.16
43480;BME280;29067;35.492;-97.520;2023-02-17T02:38:42;98397.31;;;-5.87;47.12
43480;BME280;29067;35.492;-97.520;2023-02-17T02:41:15;98396.70;;;-5.84;47.06
43480;BME280;29067;35.492;-97.520;2023-02-17T02:43:46;98394.47;;;-5.44;47.18
43480;BME280;29067;35.492;-97.520;2023-02-17T02:46:14;98391.65;;;-5.78;46.64
43480;BME280;29067;35.492;-97.520;2023-02-17T02:48:43;98394.23;;;-5.53;46.93
43480;BME280;29067;35.492;-97.520;2023-02-17T02:51:28;98394.93;;;-5.69;47.04
43480;BME280;29067;35.492;-97.520;2023-02-17T02:54:17;98397.17;;;-5.95;47.79
43480;BME280;29067;35.492;-97.520;2023-02-17T02:56:57;98397.95;;;-5.04;46.34
43480;BME280;29067;35.492;-97.520;2023-02-17T02:59:36;98398.26;;;-4.15;45.84
43480;BME280;29067;35.492;-97.520;2023-02-17T03:02:17;98411.67;;;-6.94;49.17
43480;BME280;29067;35.492;-97.520;2023-02-17T03:04:53;98419.72;;;-6.74;50.51
43480;BME280;29067;35.492;-97.520;2023-02-17T03:07:29;98413.59;;;-6.21;48.77
43480;BME280;29067;35.492;-97.520;2023-02-17T03:10:06;98413.33;;;-6.23;48.97
43480;BME280;29067;35.492;-97.520;2023-02-17T03:12:36;98417.21;;;-6.34;49.04
43480;BME280;29067;35.492;-97.520;2023-02-17T03:15:11;98410.22;;;-5.19;47.63
43480;BME280;29067;35.492;-97.520;2023-02-17T03:17:40;98420.34;;;-6.69;50.32
43480;BME280;29067;35.492;-97.520;2023-02-17T03:20:09;98423.08;;;-5.81;48.99
43480;BME280;29067;35.492;-97.520;2023-02-17T03:22:40;98427.57;;;-5.05;48.24
43480;BME280;29067;35.492;-97.520;2023-02-17T03:25:10;98437.62;;;-5.63;48.28
43480;BME280;29067;35.492;-97.520;2023-02-17T03:27:39;98445.16;;;-6.04;49.55
43480;BME280;29067;35.492;-97.520;2023-02-17T03:30:09;98438.40;;;-5.03;48.10
43480;BME280;29067;35.492;-97.520;2023-02-17T03:32:37;98442.47;;;-5.56;48.48
43480;BME280;29067;35.492;-97.520;2023-02-17T03:35:07;98445.41;;;-5.57;48.31
43480;BME280;29067;35.492;-97.520;2023-02-17T03:37:36;98451.62;;;-5.25;47.88
43480;BME280;29067;35.492;-97.520;2023-02-17T03:40:05;98451.87;;;-5.36;47.89
43480;BME280;29067;35.492;-97.520;2023-02-17T03:42:34;98467.98;;;-6.10;48.73
43480;BME280;29067;35.492;-97.520;2023-02-17T03:45:03;98460.75;;;-5.06;48.85
43480;BME280;29067;35.492;-97.520;2023-02-17T03:47:31;98460.10;;;-4.87;47.77
43480;BME280;29067;35.492;-97.520;2023-02-17T03:50:00;98462.45;;;-5.49;47.59
43480;BME280;29067;35.492;-97.520;2023-02-17T03:52:28;98473.58;;;-6.51;49.38
43480;BME280;29067;35.492;-97.520;2023-02-17T03:54:57;98473.48;;;-5.93;48.96
43480;BME280;29067;35.492;-97.520;2023-02-17T03:57:26;98481.02;;;-6.52;49.40
43480;BME280;29067;35.492;-97.520;2023-02-17T03:59:59;98480.22;;;-5.65;48.68
43480;BME280;29067;35.492;-97.520;2023-02-17T04:02:28;98488.43;;;-5.03;48.26
43480;BME280;29067;35.492;-97.520;2023-02-17T04:04:56;98487.95;;;-6.18;48.21
43480;BME280;29067;35.492;-97.520;2023-02-17T04:07:24;98471.35;;;-5.84;47.30
43480;BME280;29067;35.492;-97.520;2023-02-17T04:09:53;98475.22;;;-5.55;47.19
43480;BME280;29067;35.492;-97.520;2023-02-17T04:12:21;98486.29;;;-6.31;47.44
43480;BME280;29067;35.492;-97.520;2023-02-17T04:14:49;98479.07;;;-5.91;47.46
43480;BME280;29067;35.492;-97.520;2023-02-17T04:17:17;98479.72;;;-5.28;46.60
43480;BME280;29067;35.492;-97.520;2023-02-17T04:19:45;98483.62;;;-5.26;46.22
43480;BME280;29067;35.492;-97.520;2023-02-17T04:22:15;98489.31;;;-4.86;46.05
43480;BME280;29067;35.492;-97.520;2023-02-17T04:24:43;98487.35;;;-3.73;45.20
43480;BME280;29067;35.492;-97.520;2023-02-17T04:27:11;98487.83;;;-3.61;44.81
43480;BME280;29067;35.492;-97.520;2023-02-17T04:29:39;98496.84;;;-5.98;47.58
43480;BME280;29067;35.492;-97.520;2023-02-17T04:32:07;98496.20;;;-4.16;46.47
43480;BME280;29067;35.492;-97.520;2023-02-17T04:34:36;98501.02;;;-4.36;45.47
43480;BME280;29067;35.492;-97.520;2023-02-17T04:37:15;98505.24;;;-4.59;45.06
43480;BME280;29067;35.492;-97.520;2023-02-17T04:39:43;98506.50;;;-4.80;45.94
43480;BME280;29067;35.492;-97.520;2023-02-17T04:42:11;98505.50;;;-4.06;44.97
43480;BME280;29067;35.492;-97.520;2023-02-17T04:44:40;98506.42;;;-3.36;44.73
43480;BME280;29067;35.492;-97.520;2023-02-17T04:47:08;98518.62;;;-4.80;45.93
43480;BME280;29067;35.492;-97.520;2023-02-17T04:49:36;98513.10;;;-5.00;46.48
43480;BME280;29067;35.492;-97.520;2023-02-17T04:52:05;98516.05;;;-5.44;47.62
43480;BME280;29067;35.492;-97.520;2023-02-17T04:54:34;98516.29;;;-4.95;46.96
43480;BME280;29067;35.492;-97.520;2023-02-17T04:57:02;98517.57;;;-4.97;46.77
43480;BME280;29067;35.492;-97.520;2023-02-17T04:59:30;98523.03;;;-4.66;46.98
43480;BME280;29067;35.492;-97.520;2023-02-17T05:01:58;98525.15;;;-5.57;48.08
43480;BME280;29067;35.492;-97.520;2023-02-17T05:04:29;98531.11;;;-5.97;47.69
43480;BME280;29067;35.492;-97.520;2023-02-17T05:06:58;98530.90;;;-5.64;48.38
43480;BME280;29067;35.492;-97.520;2023-02-17T05:09:27;98535.70;;;-5.63;49.28
43480;BME280;29067;35.492;-97.520;2023-02-17T05:11:59;98537.83;;;-6.18;49.82
43480;BME280;29067;35.492;-97.520;2023-02-17T05:14:28;98542.93;;;-5.46;48.92
43480;BME280;29067;35.492;-97.520;2023-02-17T05:17:02;98544.59;;;-5.95;49.87
43480;BME280;29067;35.492;-97.520;2023-02-17T05:19:31;98541.42;;;-5.14;48.83
43480;BME280;29067;35.492;-97.520;2023-02-17T05:21:59;98539.97;;;-4.76;48.20
43480;BME280;29067;35.492;-97.520;2023-02-17T05:24:32;98536.31;;;-5.01;47.80
43480;BME280;29067;35.492;-97.520;2023-02-17T05:27:05;98546.08;;;-5.43;47.77
43480;BME280;29067;35.492;-97.520;2023-02-17T05:29:34;98548.19;;;-5.55;48.98
43480;BME280;29067;35.492;-97.520;2023-02-17T05:32:02;98555.14;;;-5.88;49.81
43480;BME280;29067;35.492;-97.520;2023-02-17T05:34:30;98563.06;;;-6.50;50.35
43480;BME280;29067;35.492;-97.520;2023-02-17T05:36:59;98563.60;;;-5.57;49.87
43480;BME280;29067;35.492;-97.520;2023-02-17T05:39:28;98565.66;;;-5.59;49.32
43480;BME280;29067;35.492;-97.520;2023-02-17T05:41:57;98562.33;;;-4.26;47.44
43480;BME280;29067;35.492;-97.520;2023-02-17T05:44:25;98569.11;;;-3.99;47.08
43480;BME280;29067;35.492;-97.520;2023-02-17T05:46:53;98581.67;;;-6.19;49.33
43480;BME280;29067;35.492;-97.520;2023-02-17T05:49:26;98588.61;;;-5.17;48.49
43480;BME280;29067;35.492;-97.520;2023-02-17T05:51:55;98596.75;;;-6.64;50.12
43480;BME280;29067;35.492;-97.520;2023-02-17T05:54:23;98598.24;;;-5.81;49.83
43480;BME280;29067;35.492;-97.520;2023-02-17T05:56:51;98590.96;;;-4.15;47.58
43480;BME280;29067;35.492;-97.520;2023-02-17T05:59:19;98593.00;;;-4.59;47.63
43480;BME280;29067;35.492;-97.520;2023-02-17T06:01:49;98599.75;;;-5.41;48.18
43480;BME280;29067;35.492;-97.520;2023-02-17T06:04:17;98604.55;;;-6.06;49.23
43480;BME280;29067;35.492;-97.520;2023-02-17T06:06:45;98605.55;;;-4.92;47.90
43480;BME280;29067;35.492;-97.520;2023-02-17T06:09:13;98611.18;;;-5.52;48.65
43480;BME280;29067;35.492;-97.520;2023-02-17T06:11:41;98611.31;;;-4.91;47.87
43480;BME280;29067;35.492;-97.520;2023-02-17T06:14:15;98614.89;;;-4.98;48.37
43480;BME280;29067;35.492;-97.520;2023-02-17T06:16:42;98616.32;;;-5.47;48.79
43480;BME280;29067;35.492;-97.520;2023-02-17T06:19:10;98617.79;;;-6.65;49.15
43480;BME280;29067;35.492;-97.520;2023-02-17T06:21:39;98613.96;;;-5.43;50.06
43480;BME280;29067;35.492;-97.520;2023-02-17T06:24:07;98608.24;;;-5.50;48.49
43480;BME280;29067;35.492;-97.520;2023-02-17T06:26:35;98608.75;;;-5.35;49.70
43480;BME280;29067;35.492;-97.520;2023-02-17T06:29:04;98609.78;;;-5.19;48.93
43480;BME280;29067;35.492;-97.520;2023-02-17T06:31:33;98612.13;;;-5.40;49.96
43480;BME280;29067;35.492;-97.520;2023-02-17T06:34:06;98612.56;;;-5.41;48.87
43480;BME280;29067;35.492;-97.520;2023-02-17T06:36:33;98613.55;;;-5.10;49.33
43480;BME280;29067;35.492;-97.520;2023-02-17T06:39:12;98611.51;;;-7.22;50.71
43480;BME280;29067;35.492;-97.520;2023-02-17T06:41:41;98614.77;;;-5.90;49.98
43480;BME280;29067;35.492;-97.520;2023-02-17T06:44:09;98613.47;;;-5.24;49.93
43480;BME280;29067;35.492;-97.520;2023-02-17T06:46:37;98612.70;;;-5.61;49.95
43480;BME280;29067;35.492;-97.520;2023-02-17T06:49:05;98613.79;;;-6.03;49.79
43480;BME280;29067;35.492;-97.520;2023-02-17T06:51:33;98615.29;;;-6.97;51.86
43480;BME280;29067;35.492;-97.520;2023-02-17T06:54:02;98615.35;;;-6.21;51.07
43480;BME280;29067;35.492;-97.520;2023-02-17T06:56:31;98611.08;;;-6.22;51.35
43480;BME280;29067;35.492;-97.520;2023-02-17T06:59:01;98616.50;;;-6.19;50.52
43480;BME280;29067;35.492;-97.520;2023-02-17T07:01:29;98613.77;;;-5.53;50.71
43480;BME280;29067;35.492;-97.520;2023-02-17T07:04:02;98614.44;;;-6.00;50.39
43480;BME280;29067;35.492;-97.520;2023-02-17T07:06:31;98616.84;;;-5.76;50.92
43480;BME280;29067;35.492;-97.520;2023-02-17T07:09:06;98620.26;;;-5.67;50.02
43480;BME280;29067;35.492;-97.520;2023-02-17T07:11:34;98626.55;;;-5.88;51.67
43480;BME280;29067;35.492;-97.520;2023-02-17T07:14:02;98630.25;;;-7.05;52.36
43480;BME280;29067;35.492;-97.520;2023-02-17T07:16:41;98632.81;;;-5.69;50.81
43480;BME280;29067;35.492;-97.520;2023-02-17T07:19:08;98634.48;;;-5.25;50.92
43480;BME280;29067;35.492;-97.520;2023-02-17T07:21:42;98634.85;;;-5.68;50.43
43480;BME280;29067;35.492;-97.520;2023-02-17T07:24:20;98631.08;;;-5.24;49.98
43480;BME280;29067;35.492;-97.520;2023-02-17T07:26:48;98634.89;;;-6.17;50.26
43480;BME280;29067;35.492;-97.520;2023-02-17T07:29:21;98631.96;;;-6.39;50.62
43480;BME280;29067;35.492;-97.520;2023-02-17T07:31:50;98629.60;;;-6.41;51.41
43480;BME280;29067;35.492;-97.520;2023-02-17T07:34:23;98629.29;;;-6.22;51.07
43480;BME280;29067;35.492;-97.520;2023-02-17T07:36:51;98625.62;;;-5.19;49.20
43480;BME280;29067;35.492;-97.520;2023-02-17T07:39:20;98620.70;;;-3.77;47.46
43480;BME280;29067;35.492;-97.520;2023-02-17T07:41:56;98622.46;;;-4.47;47.49
43480;BME280;29067;35.492;-97.520;2023-02-17T07:44:24;98618.83;;;-4.34;46.63
43480;BME280;29067;35.492;-97.520;2023-02-17T07:46:52;98628.46;;;-5.57;48.38
43480;BME280;29067;35.492;-97.520;2023-02-17T07:49:22;98628.52;;;-5.40;48.14
43480;BME280;29067;35.492;-97.520;2023-02-17T07:51:50;98632.30;;;-5.78;49.08
43480;BME280;29067;35.492;-97.520;2023-02-17T07:54:18;98631.60;;;-4.96;48.27
43480;BME280;29067;35.492;-97.520;2023-02-17T07:56:46;98633.11;;;-4.34;48.16
43480;BME280;29067;35.492;-97.520;2023-02-17T07:59:20;98638.51;;;-6.19;49.23
43480;BME280;29067;35.492;-97.520;2023-02-17T08:01:58;98639.04;;;-7.15;50.66
43480;BME280;29067;35.492;-97.520;2023-02-17T08:04:27;98641.91;;;-6.17;50.06
43480;BME280;29067;35.492;-97.520;2023-02-17T08:06:56;98638.53;;;-5.59;48.76
43480;BME280;29067;35.492;-97.520;2023-02-17T08:09:25;98636.74;;;-6.05;48.97
43480;BME280;29067;35.492;-97.520;2023-02-17T08:11:52;98639.12;;;-5.31;47.82
43480;BME280;29067;35.492;-97.520;2023-02-17T08:14:23;98646.50;;;-4.79;47.66
43480;BME280;29067;35.492;-97.520;2023-02-17T08:16:52;98649.78;;;-5.15;47.49
43480;BME280;29067;35.492;-97.520;2023-02-17T08:19:20;98647.49;;;-5.59;48.96
43480;BME280;29067;35.492;-97.520;2023-02-17T08:21:54;98642.22;;;-5.15;47.60
43480;BME280;29067;35.492;-97.520;2023-02-17T08:24:22;98642.99;;;-6.39;49.25
43480;BME280;29067;35.492;-97.520;2023-02-17T08:26:50;98636.34;;;-5.51;47.61
43480;BME280;29067;35.492;-97.520;2023-02-17T08:29:23;98629.83;;;-5.02;48.25
43480;BME280;29067;35.492;-97.520;2023-02-17T08:31:52;98630.34;;;-5.93;48.90
43480;BME280;29067;35.492;-97.520;2023-02-17T08:34:20;98624.95;;;-5.92;48.91
43480;BME280;29067;35.492;-97.520;2023-02-17T08:36:48;98624.31;;;-5.99;48.82
43480;BME280;29067;35.492;-97.520;2023-02-17T08:39:21;98627.15;;;-5.57;49.38
43480;BME280;29067;35.492;-97.520;2023-02-17T08:41:49;98634.57;;;-6.56;48.90
43480;BME280;29067;35.492;-97.520;2023-02-17T08:44:23;98637.71;;;-7.13;51.10
43480;BME280;29067;35.492;-97.520;2023-02-17T08:46:51;98641.67;;;-7.38;51.65
43480;BME280;29067;35.492;-97.520;2023-02-17T08:49:21;98646.62;;;-6.68;50.97
43480;BME280;29067;35.492;-97.520;2023-02-17T08:51:50;98653.07;;;-8.04;52.90
43480;BME280;29067;35.492;-97.520;2023-02-17T08:54:24;98656.22;;;-7.08;52.49
43480;BME280;29067;35.492;-97.520;2023-02-17T08:56:54;98667.76;;;-8.04;54.84
43480;BME280;29067;35.492;-97.520;2023-02-17T08:59:27;98665.05;;;-7.93;54.20
43480;BME280;29067;35.492;-97.520;2023-02-17T09:01:55;98665.94;;;-7.03;53.05
43480;BME280;29067;35.492;-97.520;2023-02-17T09:04:24;98672.94;;;-8.53;55.58
43480;BME280;29067;35.492;-97.520;2023-02-17T09:06:53;98674.54;;;-7.69;55.01
43480;BME280;29067;35.492;-97.520;2023-02-17T09:09:24;98678.55;;;-7.98;55.43
43480;BME280;29067;35.492;-97.520;2023-02-17T09:11:54;98680.27;;;-8.27;56.17
43480;BME280;29067;35.492;-97.520;2023-02-17T09:14:24;98673.89;;;-6.23;52.21
43480;BME280;29067;35.492;-97.520;2023-02-17T09:16:57;98671.95;;;-6.66;53.95
43480;BME280;29067;35.492;-97.520;2023-02-17T09:19:26;98672.09;;;-6.94;53.27
43480;BME280;29067;35.492;-97.520;2023-02-17T09:21:55;98676.83;;;-6.70;53.42
43480;BME280;29067;35.492;-97.520;2023-02-17T09:24:23;98678.28;;;-7.35;54.05
43480;BME280;29067;35.492;-97.520;2023-02-17T09:26:51;98679.57;;;-7.10;53.88
43480;BME280;29067;35.492;-97.520;2023-02-17T09:29:20;98683.92;;;-7.60;54.76
43480;BME280;29067;35.492;-97.520;2023-02-17T09:31:48;98685.05;;;-6.90;53.31
43480;BME280;29067;35.492;-97.520;2023-02-17T09:34:16;98683.08;;;-6.76;51.47
43480;BME280;29067;35.492;-97.520;2023-02-17T09:36:45;98684.26;;;-6.81;50.72
43480;BME280;29067;35.492;-97.520;2023-02-17T09:39:13;98682.43;;;-5.49;49.80
43480;BME280;29067;35.492;-97.520;2023-02-17T09:41:44;98683.14;;;-5.79;49.97
43480;BME280;29067;35.492;-97.520;2023-02-17T09:44:19;98684.36;;;-5.11;48.58
43480;BME280;29067;35.492;-97.520;2023-02-17T09:46:54;98692.66;;;-5.75;48.35
43480;BME280;29067;35.492;-97.520;2023-02-17T09:49:26;98691.77;;;-4.78;48.08
43480;BME280;29067;35.492;-97.520;2023-02-17T09:51:59;98691.30;;;-4.53;47.69
43480;BME280;29067;35.492;-97.520;2023-02-17T09:54:33;98692.84;;;-6.85;48.45
43480;BME280;29067;35.492;-97.520;2023-02-17T09:57:02;98695.72;;;-7.03;49.04
43480;BME280;29067;35.492;-97.520;2023-02-17T09:59:37;98707.90;;;-8.49;51.59
43480;BME280;29067;35.492;-97.520;2023-02-17T10:02:13;98705.53;;;-7.27;50.51
43480;BME280;29067;35.492;-97.520;2023-02-17T10:04:47;98710.35;;;-7.61;52.24
43480;BME280;29067;35.492;-97.520;2023-02-17T10:07:19;98708.04;;;-7.18;51.32
43480;BME280;29067;35.492;-97.520;2023-02-17T10:09:54;98707.51;;;-6.46;50.20
43480;BME280;29067;35.492;-97.520;2023-02-17T10:12:29;98699.93;;;-6.72;49.31
43480;BME280;29067;35.492;-97.520;2023-02-17T10:15:00;98698.26;;;-5.79;48.86
43480;BME280;29067;35.492;-97.520;2023-02-17T10:17:34;98702.59;;;-6.94;48.92
43480;BME280;29067;35.492;-97.520;2023-02-17T10:20:08;98701.67;;;-6.84;48.62
43480;BME280;29067;35.492;-97.520;2023-02-17T10:22:37;98701.83;;;-6.32;48.86
43480;BME280;29067;35.492;-97.520;2023-02-17T10:25:17;98701.79;;;-5.70;47.72
43480;BME280;29067;35.492;-97.520;2023-02-17T10:27:50;98706.80;;;-6.54;47.56
43480;BME280;29067;35.492;-97.520;2023-02-17T10:30:29;98706.24;;;-5.57;46.23
43480;BME280;29067;35.492;-97.520;2023-02-17T10:33:01;98704.79;;;-4.54;45.83
43480;BME280;29067;35.492;-97.520;2023-02-17T10:35:42;98705.65;;;-4.26;44.68
43480;BME280;29067;35.492;-97.520;2023-02-17T10:38:16;98712.25;;;-5.30;45.02
43480;BME280;29067;35.492;-97.520;2023-02-17T10:40:47;98718.91;;;-5.43;45.47
43480;BME280;29067;35.492;-97.520;2023-02-17T10:43:23;98718.40;;;-6.81;46.38
43480;BME280;29067;35.492;-97.520;2023-02-17T10:45:54;98714.27;;;-4.53;44.11
43480;BME280;29067;35.492;-97.520;2023-02-17T10:48:27;98715.20;;;-4.34;44.40
43480;BME280;29067;35.492;-97.520;2023-02-17T10:50:59;98716.34;;;-5.02;44.75
43480;BME280;29067;35.492;-97.520;2023-02-17T10:53:38;98716.29;;;-6.23;46.33
43480;BME280;29067;35.492;-97.520;2023-02-17T10:56:10;98725.67;;;-7.26;48.69
43480;BME280;29067;35.492;-97.520;2023-02-17T10:58:51;98727.16;;;-5.77;46.34
43480;BME280;29067;35.492;-97.520;2023-02-17T11:01:21;98725.57;;;-4.82;44.57
43480;BME280;29067;35.492;-97.520;2023-02-17T11:03:59;98727.27;;;-6.61;46.86
43480;BME280;29067;35.492;-97.520;2023-02-17T11:06:29;98726.59;;;-6.05;45.28
43480;BME280;29067;35.492;-97.520;2023-02-17T11:09:00;98728.85;;;-5.29;44.49
43480;BME280;29067;35.492;-97.520;2023-02-17T11:11:31;98729.65;;;-5.65;44.66
43480;BME280;29067;35.492;-97.520;2023-02-17T11:14:11;98732.04;;;-5.50;44.09
43480;BME280;29067;35.492;-97.520;2023-02-17T11:16:49;98736.40;;;-4.90;43.50
43480;BME280;29067;35.492;-97.520;2023-02-17T11:19:22;98740.00;;;-5.85;44.60
43480;BME280;29067;35.492;-97.520;2023-02-17T11:21:51;98736.82;;;-5.34;45.03
43480;BME280;29067;35.492;-97.520;2023-02-17T11:24:20;98735.16;;;-6.16;44.44
43480;BME280;29067;35.492;-97.520;2023-02-17T11:26:57;98737.07;;;-6.31;45.24
43480;BME280;29067;35.492;-97.520;2023-02-17T11:29:26;98734.54;;;-6.03;45.05
43480;BME280;29067;35.492;-97.520;2023-02-17T11:31:58;98735.69;;;-6.47;45.47
43480;BME280;29067;35.492;-97.520;2023-02-17T11:34:30;98736.72;;;-5.12;43.88
43480;BME280;29067;35.492;-97.520;2023-02-17T11:37:00;98740.21;;;-4.59;43.31
43480;BME280;29067;35.492;-97.520;2023-02-17T11:39:29;98742.57;;;-4.51;42.86
43480;BME280;29067;35.492;-97.520;2023-02-17T11:41:58;98745.81;;;-4.84;42.93
43480;BME280;29067;35.492;-97.520;2023-02-17T11:44:27;98745.94;;;-5.31;43.82
43480;BME280;29067;35.492;-97.520;2023-02-17T11:47:04;98747.96;;;-5.28;43.49
43480;BME280;29067;35.492;-97.520;2023-02-17T11:49:42;98746.60;;;-5.78;44.31
43480;BME280;29067;35.492;-97.520;2023-02-17T11:52:22;98743.21;;;-5.01;43.53
43480;BME280;29067;35.492;-97.520;2023-02-17T11:55:10;98737.66;;;-5.02;42.65
43480;BME280;29067;35.492;-97.520;2023-02-17T11:57:44;98738.86;;;-6.41;44.66
43480;BME280;29067;35.492;-97.520;2023-02-17T12:03:22;98736.42;;;-5.53;42.93
43480;BME280;29067;35.492;-97.520;2023-02-17T12:06:04;98735.74;;;-5.13;42.57
43480;BME280;29067;35.492;-97.520;2023-02-17T12:08:45;98737.12;;;-5.19;42.71
43480;BME280;29067;35.492;-97.520;2023-02-17T12:11:24;98736.51;;;-4.26;42.07
43480;BME280;29067;35.492;-97.520;2023-02-17T12:14:07;98746.98;;;-6.56;43.39
43480;BME280;29067;35.492;-97.520;2023-02-17T12:16:53;98750.14;;;-5.06;42.52
43480;BME280;29067;35.492;-97.520;2023-02-17T12:19:39;98754.93;;;-4.94;42.43
43480;BME280;29067;35.492;-97.520;2023-02-17T12:22:17;98758.62;;;-6.19;43.05
43480;BME280;29067;35.492;-97.520;2023-02-17T12:24:55;98762.25;;;-6.07;42.37
43480;BME280;29067;35.492;-97.520;2023-02-17T12:27:35;98770.97;;;-6.40;42.87
43480;BME280;29067;35.492;-97.520;2023-02-17T12:30:41;98767.00;;;-4.35;41.21
43480;BME280;29067;35.492;-97.520;2023-02-17T12:33:26;98773.89;;;-4.97;42.60
43480;BME280;29067;35.492;-97.520;2023-02-17T12:36:02;98771.87;;;-5.59;42.24
43480;BME280;29067;35.492;-97.520;2023-02-17T12:38:34;98772.46;;;-5.02;41.37
43480;BME280;29067;35.492;-97.520;2023-02-17T12:41:05;98771.25;;;-6.47;42.98
43480;BME280;29067;35.492;-97.520;2023-02-17T12:43:41;98773.81;;;-6.64;43.33
43480;BME280;29067;35.492;-97.520;2023-02-17T12:46:14;98778.34;;;-4.07;41.37
43480;BME280;29067;35.492;-97.520;2023-02-17T12:48:46;98780.06;;;-5.76;41.78
43480;BME280;29067;35.492;-97.520;2023-02-17T12:51:19;98781.61;;;-5.22;41.59
43480;BME280;29067;35.492;-97.520;2023-02-17T12:54:04;98780.89;;;-5.92;41.86
43480;BME280;29067;35.492;-97.520;2023-02-17T12:57:04;98785.43;;;-6.01;41.49
43480;BME280;29067;35.492;-97.520;2023-02-17T12:59:37;98788.97;;;-5.81;42.09
43480;BME280;29067;35.492;-97.520;2023-02-17T13:02:10;98785.10;;;-5.06;40.68
43480;BME280;29067;35.492;-97.520;2023-02-17T13:04:41;98789.57;;;-6.15;42.14
43480;BME280;29067;35.492;-97.520;2023-02-17T13:07:25;98790.42;;;-5.50;41.04
43480;BME280;29067;35.492;-97.520;2023-02-17T13:10:00;98792.31;;;-6.10;41.73